Time;durP1;ratioP1;P1;durP2;ratioP2;P2;SDS_P1;SDS_P2;PMS_P1;PMS_P2;Temp;Humidity;BMP_temperature;BMP_pressure;BME280_temperature;BME280_humidity;BME280_pressure;Samples;Min_cycle;Max_cycle;Signal;HPM_P1;HPM_P2
2023/05/28 00:02:07;;;;;;;6.93;4.22;;;;;;;15.65;100.00;100239.94;5031134;28;20088;-67
2023/05/28 00:04:32;;;;;;;12.73;5.18;;;;;;;15.75;100.00;100257.34;5031314;28;20045;-67
2023/05/28 00:06:58;;;;;;;11.38;5.05;;;;;;;15.77;100.00;100247.63;5039706;28;20045;-66
2023/05/28 00:09:23;;;;;;;6.53;4.22;;;;;;;15.71;100.00;100245.09;5042640;28;20036;-67
2023/05/28 00:11:49;;;;;;;16.75;4.03;;;;;;;15.65;100.00;100226.72;5030756;28;20064;-66
2023/05/28 00:14:15;;;;;;;7.53;3.67;;;;;;;15.71;100.00;100240.72;5042921;28;20042;-65
2023/05/28 00:16:43;;;;;;;5.95;3.50;;;;;;;15.57;100.00;100232.19;5041852;28;20045;-66
2023/05/28 00:19:09;;;;;;;5.03;3.40;;;;;;;15.70;100.00;100241.59;5035405;28;20036;-67
2023/05/28 00:21:36;;;;;;;7.32;3.35;;;;;;;15.72;100.00;100234.50;5043662;28;20555;-67
2023/05/28 00:24:02;;;;;;;7.38;4.32;;;;;;;15.80;100.00;100245.78;5043722;28;20769;-66
2023/05/28 00:26:28;;;;;;;10.20;3.85;;;;;;;15.85;100.00;100239.47;5043577;28;20602;-67
2023/05/28 00:28:54;;;;;;;6.65;3.78;;;;;;;15.67;100.00;100216.97;5044339;28;20075;-66
2023/05/28 00:31:20;;;;;;;6.10;3.35;;;;;;;15.60;100.00;100217.09;5047734;28;20075;-66
2023/05/28 00:33:45;;;;;;;7.18;4.50;;;;;;;15.38;100.00;100185.03;5079841;28;20135;-67
2023/05/28 00:36:15;;;;;;;9.25;3.83;;;;;;;15.95;100.00;100236.59;5085980;28;20032;-67
2023/05/28 00:38:40;;;;;;;5.05;3.55;;;;;;;16.00;100.00;100241.75;5076315;28;20035;-67
2023/05/28 00:41:06;;;;;;;7.22;5.38;;;;;;;16.08;100.00;100238.91;5075932;28;20029;-66
2023/05/28 00:43:32;;;;;;;5.15;2.90;;;;;;;15.82;100.00;100236.00;5082162;28;20032;-67
2023/05/28 00:46:03;;;;;;;5.60;3.67;;;;;;;15.82;100.00;100227.19;5077878;28;20028;-67
2023/05/28 00:48:30;;;;;;;6.68;3.97;;;;;;;15.67;100.00;100199.31;5086210;28;20733;-66
2023/05/28 00:50:58;;;;;;;7.10;4.35;;;;;;;15.94;100.00;100232.19;5088163;28;20570;-67
2023/05/28 00:53:24;;;;;;;11.90;4.03;;;;;;;15.73;100.00;100182.44;5088777;28;20036;-66
2023/05/28 00:55:50;;;;;;;8.30;4.75;;;;;;;15.63;100.00;100184.44;5084446;28;20071;-67
2023/05/28 00:58:16;;;;;;;8.98;3.75;;;;;;;15.89;100.00;100231.44;5083850;28;20454;-66
2023/05/28 01:00:45;;;;;;;9.07;4.47;;;;;;;15.62;100.00;100203.84;5083464;28;20089;-66
2023/05/28 01:03:10;;;;;;;5.10;3.80;;;;;;;15.56;100.00;100182.84;5090588;28;20039;-66
2023/05/28 01:05:36;;;;;;;6.43;4.25;;;;;;;15.72;100.00;100231.84;5090172;28;20024;-67
2023/05/28 01:08:05;;;;;;;6.97;4.15;;;;;;;15.81;100.00;100231.63;5068617;28;20815;-67
2023/05/28 01:10:31;;;;;;;9.70;4.80;;;;;;;15.76;100.00;100232.66;5084465;28;20040;-66
2023/05/28 01:12:59;;;;;;;8.43;5.05;;;;;;;15.54;100.00;100198.72;5079341;28;20579;-67
2023/05/28 01:15:25;;;;;;;6.63;3.97;;;;;;;15.44;100.00;100172.56;5090209;28;20041;-66
2023/05/28 01:17:57;;;;;;;8.35;4.88;;;;;;;15.56;100.00;100204.84;5083182;28;20032;-67
2023/05/28 01:20:25;;;;;;;8.23;4.67;;;;;;;15.53;100.00;100178.50;5083202;28;20075;-66
2023/05/28 01:22:55;;;;;;;6.65;3.33;;;;;;;15.66;100.00;100209.94;5089977;28;20035;-67
2023/05/28 01:25:22;;;;;;;9.40;4.18;;;;;;;15.57;100.00;100182.81;5087348;28;20035;-66
2023/05/28 01:27:48;;;;;;;10.05;3.88;;;;;;;15.75;100.00;100192.09;5075083;28;20036;-66
2023/05/28 01:30:14;;;;;;;6.68;3.83;;;;;;;15.97;100.00;100212.75;5078624;28;20396;-66
2023/05/28 01:32:39;;;;;;;6.82;4.25;;;;;;;15.97;100.00;100199.50;5085402;28;20054;-66
2023/05/28 01:35:07;;;;;;;6.80;4.03;;;;;;;16.06;100.00;100209.84;5089800;28;20043;-66
2023/05/28 01:37:36;;;;;;;10.77;4.72;;;;;;;15.54;100.00;100135.25;5090208;28;20110;-66
2023/05/28 01:40:02;;;;;;;7.35;4.07;;;;;;;15.94;100.00;100181.91;5089701;28;20035;-67
2023/05/28 01:42:30;;;;;;;18.70;5.13;;;;;;;15.88;100.00;100170.63;5089667;28;20044;-66
2023/05/28 01:44:57;;;;;;;5.18;3.33;;;;;;;15.98;100.00;100178.28;5076925;28;20035;-65
2023/05/28 01:47:23;;;;;;;8.48;4.50;;;;;;;16.03;100.00;100200.19;5069944;28;20032;-65
2023/05/28 01:49:49;;;;;;;6.05;4.43;;;;;;;15.95;100.00;100204.81;5087321;28;20445;-66
2023/05/28 01:52:15;;;;;;;14.57;4.95;;;;;;;15.96;100.00;100219.78;5089057;28;20036;-66
2023/05/28 01:54:40;;;;;;;7.78;4.13;;;;;;;15.89;100.00;100193.53;5089215;28;20075;-66
2023/05/28 01:57:06;;;;;;;6.53;4.72;;;;;;;16.01;100.00;100217.03;5089392;28;20421;-67
2023/05/28 01:59:32;;;;;;;5.53;3.72;;;;;;;16.01;100.00;100217.03;5088107;28;20035;-66
2023/05/28 02:01:58;;;;;;;5.82;4.13;;;;;;;16.01;100.00;100209.97;5089210;28;20103;-67
2023/05/28 02:04:25;;;;;;;11.55;4.28;;;;;;;16.00;100.00;100212.66;5081048;28;20036;-66
2023/05/28 02:06:50;;;;;;;7.60;4.65;;;;;;;16.01;100.00;100212.63;5088909;28;20036;-67
2023/05/28 02:09:16;;;;;;;6.88;3.67;;;;;;;16.04;100.00;100215.19;5088601;28;20641;-66
2023/05/28 02:11:41;;;;;;;8.23;4.45;;;;;;;16.02;100.00;100213.47;5089117;28;20032;-66
2023/05/28 02:14:07;;;;;;;6.88;4.05;;;;;;;15.97;100.00;100178.34;5088871;28;20446;-67
2023/05/28 02:16:32;;;;;;;7.32;4.18;;;;;;;15.79;100.00;100200.81;5088833;28;20040;-67
2023/05/28 02:18:59;;;;;;;6.88;4.20;;;;;;;16.11;100.00;100217.66;5074018;28;20524;-66
2023/05/28 02:21:24;;;;;;;5.50;3.65;;;;;;;15.97;100.00;100220.69;5085740;28;20501;-66
2023/05/28 02:23:50;;;;;;;5.88;4.35;;;;;;;15.79;100.00;100204.34;5082750;28;20067;-66
2023/05/28 02:26:17;;;;;;;8.88;5.43;;;;;;;15.76;100.00;100190.34;5083432;28;20090;-67
2023/05/28 02:28:43;;;;;;;5.72;4.40;;;;;;;15.95;100.00;100218.06;5084224;28;20119;-66
2023/05/28 02:31:10;;;;;;;6.35;3.83;;;;;;;15.96;100.00;100219.78;5087243;28;20059;-65
2023/05/28 02:33:38;;;;;;;6.20;4.13;;;;;;;15.89;100.00;100196.16;5084248;28;20023;-66
2023/05/28 02:36:03;;;;;;;6.50;4.20;;;;;;;15.88;100.00;100173.28;5080417;28;20481;-65
2023/05/28 02:38:29;;;;;;;17.42;3.80;;;;;;;16.06;100.00;100212.50;5087662;28;20062;-67
2023/05/28 02:40:55;;;;;;;7.35;4.47;;;;;;;16.08;100.00;100221.25;5070122;28;20040;-66
2023/05/28 02:43:20;;;;;;;6.75;4.28;;;;;;;15.85;100.00;100184.81;5088365;28;20408;-67
2023/05/28 02:45:46;;;;;;;7.68;4.60;;;;;;;16.14;100.00;100222.88;5085956;28;20175;-65
2023/05/28 02:48:11;;;;;;;13.38;4.60;;;;;;;16.24;100.00;100225.22;5087071;28;20035;-66
2023/05/28 02:50:37;;;;;;;12.57;6.00;;;;;;;16.19;100.00;100223.63;5088375;28;20033;-66
2023/05/28 02:53:03;;;;;;;9.50;5.20;;;;;;;15.93;100.00;100201.34;5081727;28;20062;-66
2023/05/28 02:55:28;;;;;;;6.05;3.25;;;;;;;16.01;100.00;100223.22;5078649;28;20055;-67
2023/05/28 02:57:54;;;;;;;7.88;4.85;;;;;;;16.12;100.00;100230.84;5080997;28;20056;-67
2023/05/28 03:00:19;;;;;;;6.45;3.88;;;;;;;16.13;100.00;100240.56;5068181;28;20028;-66
2023/05/28 03:02:45;;;;;;;6.10;4.30;;;;;;;15.93;100.00;100197.84;5083358;28;20047;-67
2023/05/28 03:05:10;;;;;;;9.40;5.13;;;;;;;16.38;100.00;100246.06;5088001;28;20040;-67
2023/05/28 03:07:36;;;;;;;6.38;3.72;;;;;;;16.31;100.00;100255.06;5085175;28;20039;-66
2023/05/28 03:10:01;;;;;;;4.47;3.25;;;;;;;16.16;100.00;100237.81;5071161;28;20043;-66
2023/05/28 03:12:27;;;;;;;7.25;4.47;;;;;;;16.02;100.00;100235.53;5065820;28;20031;-65
2023/05/28 03:14:52;;;;;;;5.28;3.72;;;;;;;16.20;100.00;100267.72;5084958;28;20036;-67
2023/05/28 03:17:18;;;;;;;8.95;3.58;;;;;;;15.97;100.00;100229.47;5090003;28;20036;-67
2023/05/28 03:19:43;;;;;;;9.55;4.70;;;;;;;16.11;100.00;100260.91;5088834;28;20036;-67
2023/05/28 03:22:09;;;;;;;15.80;4.07;;;;;;;16.24;100.00;100261.44;5081856;28;20044;-66
2023/05/28 03:24:34;;;;;;;5.90;4.10;;;;;;;16.22;100.00;100261.50;5075587;28;20028;-66
2023/05/28 03:27:01;;;;;;;6.70;4.43;;;;;;;16.11;100.00;100258.25;5089736;28;20034;-67
2023/05/28 03:29:26;;;;;;;7.28;5.10;;;;;;;15.91;100.00;100224.31;5086309;28;20036;-66
2023/05/28 03:31:52;;;;;;;7.68;4.72;;;;;;;16.27;100.00;100264.00;5087749;28;20623;-67
2023/05/28 03:34:17;;;;;;;7.00;4.75;;;;;;;16.21;100.00;100258.88;5082900;28;20682;-67
2023/05/28 03:36:43;;;;;;;6.47;4.43;;;;;;;16.25;100.00;100257.91;5087227;28;20034;-65
2023/05/28 03:39:10;;;;;;;6.82;4.30;;;;;;;16.22;100.00;100255.31;5057667;28;20393;-65
2023/05/28 03:41:36;;;;;;;7.13;4.40;;;;;;;16.20;100.00;100241.25;5079127;28;20113;-67
2023/05/28 03:44:02;;;;;;;7.55;4.03;;;;;;;16.32;100.00;100240.94;5087087;28;20150;-66
2023/05/28 03:46:27;;;;;;;6.43;4.85;;;;;;;16.25;100.00;100248.16;5086312;28;20406;-67
2023/05/28 03:48:53;;;;;;;6.18;4.32;;;;;;;16.29;100.00;100253.38;5086896;28;20031;-67
2023/05/28 03:51:19;;;;;;;5.75;3.45;;;;;;;16.35;100.00;100258.53;5087194;28;20111;-66
2023/05/28 03:53:44;;;;;;;6.35;4.65;;;;;;;16.37;100.00;100259.34;5068409;28;20036;-67
2023/05/28 03:56:10;;;;;;;5.82;3.83;;;;;;;16.41;100.00;100261.00;5086767;28;20454;-66
2023/05/28 03:58:35;;;;;;;7.68;4.20;;;;;;;16.19;100.00;100236.88;5086822;28;20630;-67
2023/05/28 04:01:01;;;;;;;6.63;4.47;;;;;;;16.45;100.00;100281.19;5072444;28;20032;-67
2023/05/28 04:03:27;;;;;;;9.95;4.95;;;;;;;16.42;100.00;100257.44;5085137;28;20039;-66
2023/05/28 04:05:52;;;;;;;6.47;4.03;;;;;;;16.48;100.00;100285.53;5072664;28;20032;-67
2023/05/28 04:08:18;;;;;;;8.88;4.15;;;;;;;16.46;100.00;100288.25;5086827;28;20040;-67
2023/05/28 04:10:43;;;;;;;6.78;4.65;;;;;;;16.38;100.00;100271.66;5086585;28;20122;-66
2023/05/28 04:13:09;;;;;;;6.55;3.90;;;;;;;16.57;100.00;100301.19;5066742;28;20082;-66
2023/05/28 04:15:34;;;;;;;7.53;4.68;;;;;;;16.53;100.00;100303.06;5081973;28;20028;-66
2023/05/28 04:18:00;;;;;;;6.45;4.28;;;;;;;16.51;100.00;100304.03;5072369;28;20044;-66
2023/05/28 04:20:25;;;;;;;7.68;4.53;;;;;;;16.30;100.00;100257.78;5073117;28;20035;-67
2023/05/28 04:22:51;;;;;;;7.07;4.88;;;;;;;16.50;100.00;100300.47;5059317;28;20040;-67
2023/05/28 04:25:18;;;;;;;5.75;4.15;;;;;;;16.54;100.00;100278.31;5087786;28;20040;-66
2023/05/28 04:27:44;;;;;;;6.80;4.88;;;;;;;16.44;100.00;100268.88;5083826;28;20040;-66
2023/05/28 04:30:11;;;;;;;8.57;5.18;;;;;;;16.23;100.00;100249.13;5086859;28;20067;-66
2023/05/28 04:32:39;;;;;;;5.85;4.22;;;;;;;16.54;100.00;100307.44;5079294;28;20043;-67
2023/05/28 04:35:05;;;;;;;7.00;4.60;;;;;;;16.75;100.00;100321.03;5086446;28;20385;-66
2023/05/28 04:37:33;;;;;;;5.78;4.32;;;;;;;16.50;100.00;100279.28;5085885;28;20461;-66
2023/05/28 04:39:58;;;;;;;7.88;4.30;;;;;;;16.58;100.00;100311.75;5086358;28;20477;-67
2023/05/28 04:42:24;;;;;;;7.10;4.72;;;;;;;16.65;100.00;100318.63;5086506;28;20028;-67
2023/05/28 04:44:53;;;;;;;15.95;5.22;;;;;;;16.82;100.00;100320.00;5084111;28;20028;-66
2023/05/28 04:47:19;;;;;;;11.43;4.97;;;;;;;16.40;100.00;100264.56;5058372;28;20036;-67
2023/05/28 04:49:44;;;;;;;7.05;4.88;;;;;;;16.72;100.00;100323.78;5085677;28;20031;-65
2023/05/28 04:52:10;;;;;;;6.75;5.22;;;;;;;16.84;100.00;100326.13;5037869;28;20075;-66
2023/05/28 04:54:35;;;;;;;8.82;5.00;;;;;;;16.56;100.00;100294.16;5085852;28;20044;-67
2023/05/28 04:57:02;;;;;;;6.80;4.65;;;;;;;16.78;100.00;100319.16;5058438;28;20122;-67
2023/05/28 04:59:28;;;;;;;7.95;4.80;;;;;;;16.96;100.00;100338.16;5068183;28;20553;-67
2023/05/28 05:01:53;;;;;;;7.95;4.32;;;;;;;16.79;100.00;100338.63;5086309;28;20067;-67
2023/05/28 05:04:18;;;;;;;5.32;3.53;;;;;;;16.11;100.00;100205.31;5086208;28;20051;-68
2023/05/28 05:06:44;;;;;;;5.05;3.00;;;;;;;16.81;100.00;100344.75;5086714;28;20028;-68
2023/05/28 05:09:09;;;;;;;6.95;4.28;;;;;;;16.74;100.00;100316.63;5083281;28;20089;-66
2023/05/28 05:11:35;;;;;;;6.45;4.43;;;;;;;16.75;100.00;100332.50;5079066;28;20032;-66
2023/05/28 05:14:01;;;;;;;6.75;4.85;;;;;;;16.79;100.00;100343.94;5074105;28;20138;-66
2023/05/28 05:16:26;;;;;;;7.03;4.22;;;;;;;16.84;100.00;100345.53;5089538;28;20024;-66
2023/05/28 05:18:52;;;;;;;4.82;3.22;;;;;;;16.82;100.00;100346.50;5088523;28;20036;-66
2023/05/28 05:21:18;;;;;;;7.25;3.92;;;;;;;16.90;100.00;100348.94;5078317;28;20040;-66
2023/05/28 05:23:43;;;;;;;13.85;4.22;;;;;;;16.90;100.00;100360.38;5089729;28;20032;-67
2023/05/28 05:26:09;;;;;;;6.55;4.35;;;;;;;17.01;100.00;100353.03;5088854;28;20032;-66
2023/05/28 05:28:36;;;;;;;6.85;4.68;;;;;;;17.01;100.00;100357.47;5084392;28;20043;-65
2023/05/28 05:31:01;;;;;;;10.93;4.05;;;;;;;16.93;100.00;100360.34;5076740;28;20040;-66
2023/05/28 05:33:27;;;;;;;5.93;3.85;;;;;;;17.08;100.00;100349.28;5085305;28;20051;-66
2023/05/28 05:35:52;;;;;;;6.93;3.65;;;;;;;17.07;100.00;100350.22;5089576;28;20036;-66
2023/05/28 05:38:18;;;;;;;7.10;4.00;;;;;;;17.19;100.00;100349.00;5078386;28;20756;-66
2023/05/28 05:40:44;;;;;;;7.03;3.10;;;;;;;16.89;100.00;100321.56;5088931;28;20437;-66
2023/05/28 05:43:09;;;;;;;6.85;2.78;;;;;;;17.01;100.00;100352.16;5089406;28;20047;-66
2023/05/28 05:45:35;;;;;;;9.68;4.00;;;;;;;16.97;100.00;100358.44;5087255;28;21377;-67
2023/05/28 05:48:00;;;;;;;6.05;3.65;;;;;;;17.07;100.00;100365.25;5088439;28;20099;-67
2023/05/28 05:50:26;;;;;;;5.53;3.95;;;;;;;16.96;100.00;100368.19;5088923;28;20058;-66
2023/05/28 05:52:51;;;;;;;5.18;3.38;;;;;;;16.95;100.00;100347.91;5088502;28;20056;-67
2023/05/28 05:55:17;;;;;;;11.20;3.95;;;;;;;17.38;100.00;100389.13;5079585;28;20048;-66
2023/05/28 05:57:43;;;;;;;6.53;3.60;;;;;;;17.25;100.00;100372.69;5088725;28;20048;-66
2023/05/28 06:00:10;;;;;;;6.90;3.53;;;;;;;17.34;100.00;100382.16;5082365;28;20115;-66
2023/05/28 06:02:38;;;;;;;6.20;3.78;;;;;;;17.33;100.00;100383.09;5082611;28;20032;-67
2023/05/28 06:05:05;;;;;;;7.45;4.68;;;;;;;17.45;100.00;100364.16;5085894;28;20043;-68
2023/05/28 06:07:31;;;;;;;6.43;3.05;;;;;;;17.50;100.00;100343.66;5085325;28;20455;-65
2023/05/28 06:09:56;;;;;;;7.85;4.53;;;;;;;17.78;100.00;100382.66;5085807;28;20036;-65
2023/05/28 06:12:22;;;;;;;12.45;4.22;;;;;;;17.63;100.00;100399.03;5089075;28;20028;-66
2023/05/28 06:14:47;;;;;;;5.72;3.33;;;;;;;17.47;100.00;100394.16;5089060;28;20477;-66
2023/05/28 06:17:13;;;;;;;6.55;3.88;;;;;;;17.67;100.00;100398.03;5088209;28;20097;-67
2023/05/28 06:19:39;;;;;;;6.88;3.72;;;;;;;17.29;100.00;100347.81;5087791;28;20035;-66
2023/05/28 06:22:04;;;;;;;5.28;3.70;;;;;;;17.55;100.00;100382.47;5088356;28;20036;-68
2023/05/28 06:24:30;;;;;;;6.40;3.50;;;;;;;17.68;100.00;100399.78;5073886;28;20040;-66
2023/05/28 06:26:56;;;;;;;5.88;3.85;;;;;;;18.01;100.00;100405.00;5087314;28;20028;-66
2023/05/28 06:29:21;;;;;;;4.05;3.15;;;;;;;18.07;100.00;100416.28;5078488;28;20127;-67
2023/05/28 06:31:47;;;;;;;4.13;2.70;;;;;;;18.19;100.00;100422.16;5088336;28;20036;-67
2023/05/28 06:34:12;;;;;;;6.28;3.97;;;;;;;18.23;100.00;100421.13;5084812;28;20036;-66
2023/05/28 06:36:38;;;;;;;7.80;3.58;;;;;;;18.39;100.00;100427.72;5088346;28;20115;-67
2023/05/28 06:39:07;;;;;;;7.95;3.28;;;;;;;18.30;100.00;100431.50;5087869;28;20420;-67
2023/05/28 06:41:32;;;;;;;6.05;4.05;;;;;;;18.44;100.00;100435.53;5085917;28;20414;-67
2023/05/28 06:43:58;;;;;;;7.15;2.97;;;;;;;18.42;100.00;100432.91;5088088;28;20078;-66
2023/05/28 06:46:24;;;;;;;6.00;3.63;;;;;;;18.09;100.00;100376.41;5085690;28;20036;-67
2023/05/28 06:48:50;;;;;;;5.97;4.35;;;;;;;18.39;100.00;100434.81;5066989;28;20442;-65
2023/05/28 06:51:15;;;;;;;6.10;2.80;;;;;;;18.44;100.00;100438.19;5087195;28;20040;-66
2023/05/28 06:53:41;;;;;;;4.60;2.78;;;;;;;18.50;100.00;100427.38;5081986;28;20028;-66
2023/05/28 06:56:06;;;;;;;7.20;3.78;;;;;;;18.07;100.00;100331.31;5087629;28;20040;-66
2023/05/28 06:58:32;;;;;;;6.18;3.08;;;;;;;18.47;100.00;100406.19;5087608;28;20515;-66
2023/05/28 07:00:58;;;;;;;9.43;3.58;;;;;;;18.69;100.00;100439.13;5087359;28;20021;-67
2023/05/28 07:03:23;;;;;;;5.20;3.20;;;;;;;18.99;100.00;100425.75;5086309;28;20702;-67
2023/05/28 07:05:49;;;;;;;5.95;3.75;;;;;;;18.73;100.00;100439.88;5087402;28;20122;-66
2023/05/28 07:08:15;;;;;;;7.53;4.57;;;;;;;18.82;100.00;100415.69;5087336;28;20077;-67
2023/05/28 07:10:40;;;;;;;4.60;2.80;;;;;;;18.80;100.00;100440.56;5071296;28;20062;-66
2023/05/28 07:13:05;;;;;;;5.32;3.13;;;;;;;18.76;100.00;100438.03;5082648;28;20043;-67
2023/05/28 07:15:31;;;;;;;4.30;2.65;;;;;;;18.88;100.00;100446.53;5082471;28;20050;-64
2023/05/28 07:17:56;;;;;;;5.65;2.75;;;;;;;18.87;100.00;100448.31;5080813;28;20121;-66
2023/05/28 07:20:22;;;;;;;8.45;3.55;;;;;;;19.06;100.00;100443.25;5087645;28;20661;-66
2023/05/28 07:22:48;;;;;;;6.00;3.42;;;;;;;19.03;100.00;100458.41;5088344;28;20024;-67
2023/05/28 07:25:13;;;;;;;4.75;2.78;;;;;;;19.17;100.00;100458.81;5034203;28;20055;-66
2023/05/28 07:27:39;;;;;;;8.55;2.80;;;;;;;18.96;100.00;100466.63;5087174;28;20043;-67
2023/05/28 07:30:05;;;;;;;6.38;3.45;;;;;;;19.04;100.00;100465.50;5079355;28;20036;-66
2023/05/28 07:32:31;;;;;;;6.50;3.28;;;;;;;18.97;100.00;100447.06;5085621;28;20028;-66
2023/05/28 07:34:56;;;;;;;4.30;2.40;;;;;;;19.34;100.00;100461.75;5069638;28;20503;-66
2023/05/28 07:37:22;;;;;;;3.92;2.72;;;;;;;19.32;100.00;100441.47;5074208;28;20137;-66
2023/05/28 07:39:47;;;;;;;4.30;2.13;;;;;;;19.07;100.00;100444.97;5086470;28;20060;-66
2023/05/28 07:42:13;;;;;;;6.28;2.33;;;;;;;18.99;100.00;100425.75;5086759;28;20078;-66
2023/05/28 07:44:39;;;;;;;4.20;2.10;;;;;;;19.19;100.00;100486.22;5077811;28;20024;-66
2023/05/28 07:47:05;;;;;;;4.00;2.22;;;;;;;19.04;100.00;100441.56;5086155;28;20032;-66
2023/05/28 07:49:30;;;;;;;5.15;2.70;;;;;;;19.36;100.00;100485.63;5085785;28;20582;-66
2023/05/28 07:51:56;;;;;;;4.85;3.00;;;;;;;19.25;100.00;100470.06;5077813;28;20106;-66
2023/05/28 07:54:21;;;;;;;5.97;3.25;;;;;;;19.53;100.00;100471.75;5086269;28;20039;-67
2023/05/28 07:56:48;;;;;;;4.32;2.15;;;;;;;19.00;100.00;100426.63;5082510;28;20113;-66
2023/05/28 07:59:14;;;;;;;4.80;2.22;;;;;;;19.31;100.00;100463.66;5083681;28;20114;-66
2023/05/28 08:01:40;;;;;;;4.40;2.67;;;;;;;19.28;100.00;100482.38;5077814;28;20025;-66
2023/05/28 08:04:05;;;;;;;4.00;2.58;;;;;;;18.94;100.00;100436.56;5075954;28;20139;-67
2023/05/28 08:06:32;;;;;;;4.50;3.33;;;;;;;19.26;100.00;100487.75;5086108;28;20164;-67
2023/05/28 08:08:58;;;;;;;7.25;3.38;;;;;;;19.40;100.00;100495.25;5083431;28;20035;-66
2023/05/28 08:11:24;;;;;;;6.47;2.63;;;;;;;18.81;100.00;100424.59;5077715;28;20087;-66
2023/05/28 08:13:49;;;;;;;4.45;3.15;;;;;;;19.14;100.00;100478.41;5063582;28;20032;-66
2023/05/28 08:16:15;;;;;;;5.63;3.40;;;;;;;19.16;100.00;100481.88;5086301;28;20047;-67
2023/05/28 08:18:40;;;;;;;5.13;2.38;;;;;;;19.14;100.00;100477.53;5055188;28;20078;-67
2023/05/28 08:21:09;;;;;;;4.07;1.77;;;;;;;19.26;100.00;100481.56;5082863;28;20039;-67
2023/05/28 08:23:35;;;;;;;7.63;3.83;;;;;;;19.17;100.00;100470.34;5084441;28;20021;-66
2023/05/28 08:26:02;;;;;;;3.60;2.13;;;;;;;19.04;100.00;100421.16;5073678;28;20037;-65
2023/05/28 08:28:28;;;;;;;4.38;2.30;;;;;;;19.47;100.00;100469.31;5085196;28;20136;-65
2023/05/28 08:30:53;;;;;;;5.50;2.63;;;;;;;19.38;100.00;100473.16;5086505;28;20540;-66
2023/05/28 08:33:19;;;;;;;3.47;2.35;;;;;;;19.25;100.00;100471.88;5084599;28;20081;-66
2023/05/28 08:35:44;;;;;;;4.10;2.72;;;;;;;19.25;100.00;100469.22;5086025;28;20147;-66
2023/05/28 08:38:10;;;;;;;9.05;4.65;;;;;;;19.49;100.00;100478.09;5080803;28;20457;-66
2023/05/28 08:40:42;;;;;;;10.93;3.05;;;;;;;19.21;100.00;100414.38;5083800;28;20060;-67
2023/05/28 08:43:08;;;;;;;6.05;2.78;;;;;;;19.48;100.00;100479.91;5085125;28;20032;-66
2023/05/28 08:45:35;;;;;;;4.43;2.67;;;;;;;19.27;100.00;100467.34;5078165;28;20078;-66
2023/05/28 08:48:00;;;;;;;5.05;3.28;;;;;;;19.31;100.00;100464.50;5086165;28;20028;-67
2023/05/28 08:50:28;;;;;;;5.72;2.78;;;;;;;19.64;100.00;100484.66;5088037;28;20036;-67
2023/05/28 08:52:56;;;;;;;4.32;2.58;;;;;;;19.50;100.00;100494.03;5089420;28;20036;-68
2023/05/28 08:55:21;;;;;;;4.95;3.00;;;;;;;19.22;100.00;100487.91;5069660;28;20077;-67
2023/05/28 08:57:47;;;;;;;4.78;3.30;;;;;;;19.31;100.00;100480.47;5082620;28;20045;-70
2023/05/28 09:00:13;;;;;;;4.40;3.22;;;;;;;19.66;100.00;100480.16;5078162;28;20500;-67
2023/05/28 09:02:39;;;;;;;6.53;3.17;;;;;;;19.83;100.00;100485.78;5083944;28;20350;-67
2023/05/28 09:05:06;;;;;;;3.25;2.75;;;;;;;19.97;100.00;100485.22;5089482;28;20044;-67
2023/05/28 09:07:32;;;;;;;6.40;3.05;;;;;;;20.11;100.00;100484.72;5089543;28;20028;-67
2023/05/28 09:09:58;;;;;;;5.13;3.00;;;;;;;19.94;100.00;100483.56;5083931;28;20342;-66
2023/05/28 09:12:24;;;;;;;5.05;3.15;;;;;;;20.03;100.00;100483.19;5078746;28;20047;-66
2023/05/28 09:14:52;;;;;;;4.70;3.15;;;;;;;19.71;100.00;100393.00;5068380;28;20045;-66
2023/05/28 09:17:32;;;;;;;4.75;2.85;;;;;;;19.59;100.00;100451.06;5088929;28;20039;-67
2023/05/28 09:19:59;;;;;;;4.97;2.83;;;;;;;20.16;100.00;100472.09;5081523;28;20207;-66
2023/05/28 09:22:26;;;;;;;5.15;3.13;;;;;;;19.85;100.00;100483.91;5085780;28;20430;-67
2023/05/28 09:24:53;;;;;;;4.57;3.42;;;;;;;19.38;100.00;100414.59;5089155;28;20039;-67
2023/05/28 09:27:19;;;;;;;4.22;3.00;;;;;;;19.91;100.00;100445.53;5087799;28;20045;-67
2023/05/28 09:29:46;;;;;;;6.00;3.03;;;;;;;19.64;100.00;100444.72;5088841;28;20040;-67
2023/05/28 09:32:16;;;;;;;4.00;2.63;;;;;;;20.11;100.00;100480.28;5078447;28;20061;-66
2023/05/28 09:34:42;;;;;;;6.00;3.88;;;;;;;20.00;100.00;100447.84;5076824;28;20093;-68
2023/05/28 09:37:08;;;;;;;4.93;2.42;;;;;;;20.43;100.00;100483.47;5089138;28;20036;-68
2023/05/28 09:39:33;;;;;;;10.05;3.70;;;;;;;20.76;100.00;100483.06;5088288;28;20058;-67
2023/05/28 09:42:03;;;;;;;8.45;3.42;;;;;;;20.25;100.00;100477.03;5045620;28;20052;-66
2023/05/28 09:44:33;;;;;;;5.00;2.38;;;;;;;20.59;100.00;100481.09;5066777;28;20539;-66
2023/05/28 09:46:59;;;;;;;10.13;3.45;;;;;;;20.54;100.00;100435.06;5085824;28;20419;-66
2023/05/28 09:49:28;;;;;;;4.85;3.22;;;;;;;20.07;100.00;100456.47;5079339;28;20028;-66
2023/05/28 09:51:57;;;;;;;9.57;4.28;;;;;;;20.63;100.00;100480.03;5087041;28;20073;-67
2023/05/28 09:54:28;;;;;;;6.22;3.80;;;;;;;20.13;100.00;100473.06;5083307;28;20541;-66
2023/05/28 09:56:57;;;;;;;8.38;2.67;;;;;;;20.36;100.00;100474.84;5087634;28;20052;-66
2023/05/28 09:59:25;;;;;;;5.72;4.90;;;;;;;20.55;100.00;100474.09;5087222;28;20725;-66
2023/05/28 10:02:05;;;;;;;5.97;3.55;;;;;;;20.77;100.00;100472.34;5086476;28;20064;-66
2023/05/28 10:04:36;;;;;;;4.97;3.42;;;;;;;20.54;100.00;100432.38;5088065;28;20032;-66
2023/05/28 10:07:05;;;;;;;6.68;2.92;;;;;;;20.60;100.00;100469.47;5086117;28;20075;-67
2023/05/28 10:09:36;;;;;;;4.95;3.17;;;;;;;20.89;100.00;100460.28;5087943;28;20032;-67
2023/05/28 10:12:07;;;;;;;9.05;3.80;;;;;;;20.80;100.00;100464.19;5081093;28;20040;-66
2023/05/28 10:14:33;;;;;;;3.50;2.42;;;;;;;20.66;100.00;100440.78;5086619;28;20458;-66
2023/05/28 10:16:59;;;;;;;4.32;2.58;;;;;;;20.93;100.00;100405.88;5070003;28;20074;-68
2023/05/28 10:19:26;;;;;;;9.75;3.22;;;;;;;21.34;100.00;100453.91;5079076;28;20043;-66
2023/05/28 10:21:53;;;;;;;5.38;3.47;;;;;;;20.90;100.00;100419.34;5075357;28;20177;-66
2023/05/28 10:24:19;;;;;;;5.88;3.63;;;;;;;21.38;100.00;100398.59;5069726;28;20524;-67
2023/05/28 10:26:45;;;;;;;5.70;4.30;;;;;;;21.39;100.00;100427.88;5080472;28;20036;-67
2023/05/28 10:29:10;;;;;;;5.68;3.25;;;;;;;21.07;100.00;100407.91;5087494;28;20035;-67
2023/05/28 10:31:36;;;;;;;7.32;3.78;;;;;;;21.00;100.00;100451.81;5069712;28;20039;-67
2023/05/28 10:34:02;;;;;;;8.27;3.45;;;;;;;21.83;100.00;100451.72;5063303;28;20124;-66
2023/05/28 10:36:27;;;;;;;5.82;3.47;;;;;;;23.10;100.00;100443.84;5086240;28;20039;-65
2023/05/28 10:38:53;;;;;;;5.32;3.90;;;;;;;22.96;100.00;100448.03;5088037;28;20032;-66
2023/05/28 10:41:21;;;;;;;4.68;3.20;;;;;;;22.85;100.00;100386.22;5087747;28;20028;-65
2023/05/28 10:43:51;;;;;;;5.03;3.30;;;;;;;22.44;100.00;100399.00;5075698;28;20826;-66
2023/05/28 10:46:18;;;;;;;5.45;3.47;;;;;;;21.91;100.00;100389.91;5085391;28;20032;-66
2023/05/28 10:49:05;;;;;;;5.03;2.85;;;;;;;21.68;100.00;100445.28;5077081;28;20070;-68
2023/05/28 10:51:49;;;;;;;6.32;4.25;;;;;;;22.22;100.00;100434.78;5083463;28;20028;-66
2023/05/28 10:54:37;;;;;;;4.47;3.08;;;;;;;22.89;100.00;100409.16;5060208;28;20036;-66
2023/05/28 10:57:16;;;;;;;8.45;3.90;;;;;;;22.64;100.00;100438.09;5083958;28;20147;-66
2023/05/28 10:59:52;;;;;;;4.30;2.53;;;;;;;22.84;100.00;100434.44;5064164;28;20835;-66
2023/05/28 11:02:25;;;;;;;4.07;2.30;;;;;;;22.61;100.00;100438.25;5064220;28;20045;-66
2023/05/28 11:04:53;;;;;;;11.38;3.30;;;;;;;22.57;100.00;100416.16;5049328;28;20033;-66
2023/05/28 11:07:20;;;;;;;4.70;2.95;;;;;;;22.06;100.00;100391.88;5070002;28;20067;-66
2023/05/28 11:09:51;;;;;;;6.47;3.72;;;;;;;22.86;100.00;100420.03;5050676;28;20455;-66
2023/05/28 11:12:19;;;;;;;4.07;2.55;;;;;;;22.55;100.00;100426.06;5064450;28;20079;-66
2023/05/28 11:14:45;;;;;;;5.60;3.90;;;;;;;23.10;100.00;100431.31;5065217;28;20032;-66